Time,TemperatureF,DewpointF,PressureIn,WindDirection,WindDirectionDegrees,WindSpeedMPH,WindSpeedGustMPH,Humidity,HourlyPrecipIn,Conditions,Clouds,dailyrainin,SolarRadiationWatts/m^2,SoftwareType,DateUTC
2013-05-03 00:00:00,27.8,16.5,30.34,WNW,292,5.0,9.0,62,0.00,,,0.00,0,WeatherCatV1.15B25,2013-05-03 06:00:00,
2013-05-03 00:05:00,26.6,16.8,30.34,WNW,292,2.0,7.0,66,0.00,,,0.00,0,WeatherCatV1.15B25,2013-05-03 06:05:00,
2013-05-03 00:10:00,26.6,16.8,30.34,WNW,292,2.0,7.0,66,0.00,,,0.00,0,WeatherCatV1.15B25,2013-05-03 06:10:00,
2013-05-03 00:15:00,26.6,16.8,30.34,WNW,292,2.0,7.0,66,0.00,,,0.00,0,WeatherCatV1.15B25,2013-05-03 06:15:00,
2013-05-03 00:20:00,25.4,16.7,30.34,WNW,292,2.0,6.0,69,0.00,,,0.00,0,WeatherCatV1.15B25,2013-05-03 06:20:00,
2013-05-03 00:25:00,25.4,16.7,30.34,WNW,292,2.0,6.0,69,0.00,,,0.00,0,WeatherCatV1.15B25,2013-05-03 06:25:00,
2013-05-03 00:30:00,25.4,16.7,30.34,WNW,292,2.0,6.0,69,0.00,,,0.00,0,WeatherCatV1.15B25,2013-05-03 06:30:00,
2013-05-03 00:35:00,24.8,15.4,30.34,WNW,292,2.0,5.0,67,0.00,,,0.00,0,WeatherCatV1.15B25,2013-05-03 06:35:00,
2013-05-03 00:40:00,24.8,15.4,30.34,WNW,292,2.0,5.0,67,0.00,,,0.00,0,WeatherCatV1.15B25,2013-05-03 06:40:00,
2013-05-03 00:45:00,24.8,15.4,30.34,WNW,292,2.0,5.0,67,0.00,,,0.00,0,WeatherCatV1.15B25,2013-05-03 06:45:00,
2013-05-03 00:50:00,24.5,15.5,30.34,WNW,292,1.0,3.0,68,0.00,,,0.00,0,WeatherCatV1.15B25,2013-05-03 06:50:00,
2013-05-03 00:55:00,24.5,15.5,30.34,WNW,292,1.0,3.0,68,0.00,,,0.00,0,WeatherCatV1.15B25,2013-05-03 06:55:00,
2013-05-03 01:00:00,24.5,15.5,30.34,WNW,292,1.0,3.0,68,0.00,,,0.00,0,WeatherCatV1.15B25,2013-05-03 07:00:00,
2013-05-03 01:05:00,23.8,14.8,30.33,WNW,292,0.0,0.0,68,0.00,,,0.00,0,WeatherCatV1.15B25,2013-05-03 07:05:00,
2013-05-03 01:10:00,23.8,14.8,30.33,WNW,292,0.0,0.0,68,0.00,,,0.00,0,WeatherCatV1.15B25,2013-05-03 07:10:00,
2013-05-03 01:15:00,23.8,14.8,30.33,WNW,292,0.0,0.0,68,0.00,,,0.00,0,WeatherCatV1.15B25,2013-05-03 07:15:00,
2013-05-03 01:20:00,23.3,14.3,30.33,WNW,292,0.0,4.0,68,0.00,,,0.00,0,WeatherCatV1.15B25,2013-05-03 07:20:00,
2013-05-03 01:25:00,23.3,14.3,30.33,WNW,292,0.0,4.0,68,0.00,,,0.00,0,WeatherCatV1.15B25,2013-05-03 07:25:00,
2013-05-03 01:30:00,22.4,13.8,30.32,WNW,292,1.0,3.0,69,0.00,,,0.00,0,WeatherCatV1.15B25,2013-05-03 07:30:00,
2013-05-03 01:35:00,22.4,13.8,30.32,WNW,292,1.0,3.0,69,0.00,,,0.00,0,WeatherCatV1.15B25,2013-05-03 07:35:00,
2013-05-03 01:40:00,22.4,13.8,30.32,WNW,292,1.0,3.0,69,0.00,,,0.00,0,WeatherCatV1.15B25,2013-05-03 07:40:00,
2013-05-03 01:45:00,21.9,14.0,30.32,WNW,292,1.0,5.0,71,0.00,,,0.00,0,WeatherCatV1.15B25,2013-05-03 07:45:00,
2013-05-03 01:50:00,21.9,14.0,30.32,WNW,292,1.0,5.0,71,0.00,,,0.00,0,WeatherCatV1.15B25,2013-05-03 07:50:00,
2013-05-03 01:55:00,21.9,14.0,30.32,WNW,292,1.0,5.0,71,0.00,,,0.00,0,WeatherCatV1.15B25,2013-05-03 07:55:00,
2013-05-03 02:00:00,21.9,14.0,30.32,WNW,292,1.0,5.0,71,0.00,,,0.00,0,WeatherCatV1.15B25,2013-05-03 08:00:00,
2013-05-03 02:05:00,21.9,14.0,30.32,WNW,292,1.0,5.0,71,0.00,,,0.00,0,WeatherCatV1.15B25,2013-05-03 08:05:00,
2013-05-03 02:10:00,21.9,14.0,30.32,WNW,292,1.0,5.0,71,0.00,,,0.00,0,WeatherCatV1.15B25,2013-05-03 08:10:00,
2013-05-03 02:15:00,21.9,14.0,30.32,WNW,292,1.0,5.0,71,0.00,,,0.00,0,WeatherCatV1.15B25,2013-05-03 08:15:00,
2013-05-03 02:20:00,21.6,13.7,30.32,WNW,292,1.0,5.0,71,0.00,,,0.00,0,WeatherCatV1.15B25,2013-05-03 08:20:00,
2013-05-03 02:25:00,21.6,13.7,30.32,WNW,292,1.0,5.0,71,0.00,,,0.00,0,WeatherCatV1.15B25,2013-05-03 08:25:00,
2013-05-03 02:30:00,21.6,13.7,30.32,WNW,292,1.0,5.0,71,0.00,,,0.00,0,WeatherCatV1.15B25,2013-05-03 08:30:00,
2013-05-03 02:35:00,21.3,13.4,30.31,WNW,292,1.0,5.0,71,0.00,,,0.00,0,WeatherCatV1.15B25,2013-05-03 08:35:00,
2013-05-03 02:40:00,21.3,13.4,30.31,WNW,292,1.0,5.0,71,0.00,,,0.00,0,WeatherCatV1.15B25,2013-05-03 08:40:00,
2013-05-03 02:45:00,21.3,13.4,30.31,WNW,292,1.0,5.0,71,0.00,,,0.00,0,WeatherCatV1.15B25,2013-05-03 08:45:00,
2013-05-03 02:50:00,21.0,13.4,30.31,WNW,292,1.0,5.0,72,0.00,,,0.00,0,WeatherCatV1.15B25,2013-05-03 08:50:00,
2013-05-03 02:55:00,21.0,13.4,30.31,WNW,292,1.0,5.0,72,0.00,,,0.00,0,WeatherCatV1.15B25,2013-05-03 08:55:00,
2013-05-03 03:00:00,21.0,13.4,30.31,WNW,292,1.0,5.0,72,0.00,,,0.00,0,WeatherCatV1.15B25,2013-05-03 09:00:00,
2013-05-03 03:05:00,21.1,12.9,30.32,WNW,292,1.0,5.0,70,0.00,,,0.00,0,WeatherCatV1.15B25,2013-05-03 09:05:00,
2013-05-03 03:10:00,21.1,12.9,30.32,WNW,292,1.0,5.0,70,0.00,,,0.00,0,WeatherCatV1.15B25,2013-05-03 09:10:00,
2013-05-03 03:15:00,21.1,12.9,30.32,WNW,292,1.0,5.0,70,0.00,,,0.00,0,WeatherCatV1.15B25,2013-05-03 09:15:00,
2013-05-03 03:20:00,21.1,13.2,30.32,WNW,292,0.0,3.0,71,0.00,,,0.00,0,WeatherCatV1.15B25,2013-05-03 09:20:00,
2013-05-03 03:25:00,21.1,13.2,30.32,WNW,292,0.0,3.0,71,0.00,,,0.00,0,WeatherCatV1.15B25,2013-05-03 09:25:00,
2013-05-03 03:30:00,21.1,13.2,30.32,WNW,292,0.0,3.0,71,0.00,,,0.00,0,WeatherCatV1.15B25,2013-05-03 09:30:00,
2013-05-03 03:35:00,20.6,13.0,30.31,WNW,292,1.0,3.0,72,0.00,,,0.00,0,WeatherCatV1.15B25,2013-05-03 09:35:00,
2013-05-03 03:40:00,20.6,13.0,30.31,WNW,292,1.0,3.0,72,0.00,,,0.00,0,WeatherCatV1.15B25,2013-05-03 09:40:00,
2013-05-03 03:45:00,20.6,13.0,30.31,WNW,292,1.0,3.0,72,0.00,,,0.00,0,WeatherCatV1.15B25,2013-05-03 09:45:00,
2013-05-03 03:50:00,20.2,13.3,30.31,WNW,292,2.0,3.0,74,0.00,,,0.00,0,WeatherCatV1.15B25,2013-05-03 09:50:00,
2013-05-03 03:55:00,20.2,13.3,30.31,WNW,292,2.0,3.0,74,0.00,,,0.00,0,WeatherCatV1.15B25,2013-05-03 09:55:00,
2013-05-03 04:00:00,20.2,13.3,30.31,WNW,292,2.0,3.0,74,0.00,,,0.00,0,WeatherCatV1.15B25,2013-05-03 10:00:00,
2013-05-03 04:05:00,20.0,12.8,30.31,WNW,292,1.0,3.0,73,0.00,,,0.00,0,WeatherCatV1.15B25,2013-05-03 10:05:00,
2013-05-03 04:10:00,20.0,12.8,30.31,WNW,292,1.0,3.0,73,0.00,,,0.00,0,WeatherCatV1.15B25,2013-05-03 10:10:00,
2013-05-03 04:15:00,20.0,12.8,30.31,WNW,292,1.0,3.0,73,0.00,,,0.00,0,WeatherCatV1.15B25,2013-05-03 10:15:00,
2013-05-03 04:20:00,19.9,13.0,30.32,WNW,292,2.0,5.0,74,0.00,,,0.00,0,WeatherCatV1.15B25,2013-05-03 10:20:00,
2013-05-03 04:25:00,19.9,13.0,30.32,WNW,292,2.0,5.0,74,0.00,,,0.00,0,WeatherCatV1.15B25,2013-05-03 10:25:00,
2013-05-03 04:30:00,19.9,13.0,30.32,WNW,292,2.0,5.0,74,0.00,,,0.00,0,WeatherCatV1.15B25,2013-05-03 10:30:00,
2013-05-03 04:35:00,20.2,13.3,30.32,WNW,292,1.0,4.0,74,0.00,,,0.00,0,WeatherCatV1.15B25,2013-05-03 10:35:00,
2013-05-03 04:40:00,20.2,13.3,30.32,WNW,292,1.0,4.0,74,0.00,,,0.00,0,WeatherCatV1.15B25,2013-05-03 10:40:00,
2013-05-03 04:45:00,20.2,13.3,30.32,WNW,292,1.0,4.0,74,0.00,,,0.00,0,WeatherCatV1.15B25,2013-05-03 10:45:00,
2013-05-03 04:50:00,20.5,12.6,30.31,WNW,292,0.0,3.0,71,0.00,,,0.00,0,WeatherCatV1.15B25,2013-05-03 10:50:00,
2013-05-03 04:55:00,20.5,12.6,30.31,WNW,292,0.0,3.0,71,0.00,,,0.00,0,WeatherCatV1.15B25,2013-05-03 10:55:00,
2013-05-03 05:07:00,20.5,12.6,30.31,WNW,292,0.0,3.0,71,0.00,,,0.00,0,WeatherCatV1.15B25,2013-05-03 11:07:00,
2013-05-03 05:12:00,20.2,12.6,30.31,WNW,298,2.0,2.0,72,0.00,,,0.00,0,WeatherCatV1.15B25,2013-05-03 11:12:00,
2013-05-03 05:17:00,20.0,12.8,30.31,WNW,298,0.0,0.0,73,0.00,,,0.00,0,WeatherCatV1.15B25,2013-05-03 11:17:00,
2013-05-03 05:22:00,19.9,13.0,30.31,WNW,298,0.0,0.0,74,0.00,,,0.00,0,WeatherCatV1.15B25,2013-05-03 11:22:00,
2013-05-03 05:27:00,19.9,13.0,30.31,WNW,298,0.0,0.0,74,0.00,,,0.00,0,WeatherCatV1.15B25,2013-05-03 11:27:00,
2013-05-03 05:32:00,19.7,12.8,30.31,WNW,298,2.0,3.0,74,0.00,,,0.00,0,WeatherCatV1.15B25,2013-05-03 11:32:00,
2013-05-03 05:37:00,19.5,12.6,30.31,WNW,298,0.0,0.0,74,0.00,,,0.00,0,WeatherCatV1.15B25,2013-05-03 11:37:00,
2013-05-03 05:42:00,19.4,12.5,30.31,WNW,298,0.0,0.0,74,0.00,,,0.00,0,WeatherCatV1.15B25,2013-05-03 11:42:00,
2013-05-03 05:47:00,19.4,12.5,30.30,WNW,298,1.0,2.0,74,0.00,,,0.00,0,WeatherCatV1.15B25,2013-05-03 11:47:00,
2013-05-03 05:52:00,19.4,12.2,30.30,WNW,298,0.0,0.0,73,0.00,,,0.00,0,WeatherCatV1.15B25,2013-05-03 11:52:00,
2013-05-03 05:57:00,19.2,12.3,30.30,WNW,298,0.0,0.0,74,0.00,,,0.00,0,WeatherCatV1.15B25,2013-05-03 11:57:00,
2013-05-03 06:02:00,19.1,12.2,30.30,WNW,298,0.0,0.0,74,0.00,,,0.00,0,WeatherCatV1.15B25,2013-05-03 12:02:00,
2013-05-03 06:07:00,19.1,12.2,30.30,WNW,298,2.0,3.0,74,0.00,,,0.00,7,WeatherCatV1.15B25,2013-05-03 12:07:00,
2013-05-03 06:12:00,19.1,12.2,30.30,WNW,298,0.0,0.0,74,0.00,,,0.00,11,WeatherCatV1.15B25,2013-05-03 12:12:00,
2013-05-03 06:17:00,19.1,12.2,30.30,WNW,298,0.0,0.0,74,0.00,,,0.00,12,WeatherCatV1.15B25,2013-05-03 12:17:00,
2013-05-03 06:22:00,18.9,12.3,30.30,WNW,298,0.0,0.0,75,0.00,,,0.00,16,WeatherCatV1.15B25,2013-05-03 12:22:00,
2013-05-03 06:27:00,18.9,12.3,30.30,WNW,298,0.0,0.0,75,0.00,,,0.00,18,WeatherCatV1.15B25,2013-05-03 12:27:00,
2013-05-03 06:32:00,19.1,12.5,30.30,WNW,298,3.0,3.0,75,0.00,,,0.00,23,WeatherCatV1.15B25,2013-05-03 12:32:00,
2013-05-03 06:37:00,19.4,12.5,30.30,WNW,298,2.0,4.0,74,0.00,,,0.00,25,WeatherCatV1.15B25,2013-05-03 12:37:00,
2013-05-03 06:42:00,19.7,12.5,30.30,WNW,298,0.0,0.0,73,0.00,,,0.00,26,WeatherCatV1.15B25,2013-05-03 12:42:00,
2013-05-03 06:47:00,19.9,13.0,30.30,WNW,298,3.0,3.0,74,0.00,,,0.00,28,WeatherCatV1.15B25,2013-05-03 12:47:00,
2013-05-03 06:52:00,20.0,13.1,30.30,WNW,298,0.0,0.0,74,0.00,,,0.00,30,WeatherCatV1.15B25,2013-05-03 12:52:00,
2013-05-03 06:57:00,20.3,13.4,30.30,WNW,298,0.0,0.0,74,0.00,,,0.00,32,WeatherCatV1.15B25,2013-05-03 12:57:00,
2013-05-03 07:02:00,21.0,14.0,30.30,WNW,298,0.0,0.0,74,0.00,,,0.00,176,WeatherCatV1.15B25,2013-05-03 13:02:00,
2013-05-03 07:07:00,22.4,14.1,30.30,WNW,298,0.0,3.0,70,0.00,,,0.00,197,WeatherCatV1.15B25,2013-05-03 13:07:00,
2013-05-03 07:12:00,23.8,14.5,30.30,WNW,298,2.0,2.0,67,0.00,,,0.00,218,WeatherCatV1.15B25,2013-05-03 13:12:00,
2013-05-03 07:17:00,25.3,14.9,30.29,WNW,298,0.0,0.0,64,0.00,,,0.00,246,WeatherCatV1.15B25,2013-05-03 13:17:00,
2013-05-03 07:22:00,26.6,14.6,30.29,WNW,298,0.0,0.0,60,0.00,,,0.00,238,WeatherCatV1.15B25,2013-05-03 13:22:00,
2013-05-03 07:27:00,27.9,14.3,30.29,WNW,298,0.0,0.0,56,0.00,,,0.00,243,WeatherCatV1.15B25,2013-05-03 13:27:00,
2013-05-03 07:32:00,29.5,14.1,30.29,WNW,298,0.0,0.0,52,0.00,,,0.00,262,WeatherCatV1.15B25,2013-05-03 13:32:00,
2013-05-03 07:37:00,31.3,14.4,30.29,WNW,298,0.0,0.0,49,0.00,,,0.00,287,WeatherCatV1.15B25,2013-05-03 13:37:00,
2013-05-03 07:42:00,32.8,15.3,30.29,WNW,298,0.0,0.0,48,0.00,,,0.00,311,WeatherCatV1.15B25,2013-05-03 13:42:00,
2013-05-03 07:47:00,34.0,14.4,30.29,WNW,298,0.0,0.0,44,0.00,,,0.00,331,WeatherCatV1.15B25,2013-05-03 13:47:00,
2013-05-03 07:52:00,34.7,14.0,30.29,WNW,298,0.0,0.0,42,0.00,,,0.00,348,WeatherCatV1.15B25,2013-05-03 13:52:00,
2013-05-03 07:57:00,34.9,13.1,30.29,WSW,257,5.0,5.0,40,0.00,,,0.00,370,WeatherCatV1.15B25,2013-05-03 13:57:00,
2013-05-03 08:02:00,34.1,16.0,30.29,SW,216,3.0,5.0,47,0.00,,,0.00,387,WeatherCatV1.15B25,2013-05-03 14:02:00,
2013-05-03 08:07:00,34.1,15.0,30.29,SSW,210,4.0,5.0,45,0.00,,,0.00,406,WeatherCatV1.15B25,2013-05-03 14:07:00,
2013-05-03 08:12:00,34.4,14.8,30.29,SSW,210,3.0,5.0,44,0.00,,,0.00,426,WeatherCatV1.15B25,2013-05-03 14:12:00,
2013-05-03 08:17:00,34.9,15.7,30.28,SSW,210,3.0,5.0,45,0.00,,,0.00,443,WeatherCatV1.15B25,2013-05-03 14:17:00,
2013-05-03 08:22:00,35.3,15.1,30.28,South,191,6.0,6.0,43,0.00,,,0.00,463,WeatherCatV1.15B25,2013-05-03 14:22:00,
2013-05-03 08:27:00,35.5,13.6,30.28,South,191,5.0,5.0,40,0.00,,,0.00,480,WeatherCatV1.15B25,2013-05-03 14:27:00,
2013-05-03 08:32:00,35.9,12.2,30.27,South,188,2.0,5.0,37,0.00,,,0.00,500,WeatherCatV1.15B25,2013-05-03 14:32:00,
2013-05-03 08:37:00,36.6,14.6,30.27,South,188,0.0,2.0,40,0.00,,,0.00,505,WeatherCatV1.15B25,2013-05-03 14:37:00,
2013-05-03 08:42:00,37.0,15.5,30.27,South,186,2.0,4.0,41,0.00,,,0.00,533,WeatherCatV1.15B25,2013-05-03 14:42:00,
2013-05-03 08:47:00,37.5,14.8,30.26,South,186,0.0,3.0,39,0.00,,,0.00,552,WeatherCatV1.15B25,2013-05-03 14:47:00,
2013-05-03 08:52:00,38.0,11.5,30.26,South,186,0.0,0.0,33,0.00,,,0.00,568,WeatherCatV1.15B25,2013-05-03 14:52:00,
2013-05-03 08:57:00,38.6,12.7,30.26,South,186,2.0,3.0,34,0.00,,,0.00,588,WeatherCatV1.15B25,2013-05-03 14:57:00,
2013-05-03 09:02:00,38.6,11.3,30.26,South,185,0.0,0.0,32,0.00,,,0.00,604,WeatherCatV1.15B25,2013-05-03 15:02:00,
2013-05-03 09:07:00,38.9,9.4,30.26,South,185,3.0,4.0,29,0.00,,,0.00,619,WeatherCatV1.15B25,2013-05-03 15:07:00,
2013-05-03 09:12:00,39.5,13.5,30.26,South,185,0.0,0.0,34,0.00,,,0.00,639,WeatherCatV1.15B25,2013-05-03 15:12:00,
2013-05-03 09:17:00,40.3,12.1,30.25,SSE,152,0.0,5.0,31,0.00,,,0.00,653,WeatherCatV1.15B25,2013-05-03 15:17:00,
2013-05-03 09:22:00,40.5,14.4,30.25,SE,131,5.0,7.0,34,0.00,,,0.00,670,WeatherCatV1.15B25,2013-05-03 15:22:00,
2013-05-03 09:27:00,40.8,14.0,30.25,SE,124,3.0,7.0,33,0.00,,,0.00,684,WeatherCatV1.15B25,2013-05-03 15:27:00,
2013-05-03 09:32:00,40.9,13.3,30.24,ESE,113,7.0,7.0,32,0.00,,,0.00,697,WeatherCatV1.15B25,2013-05-03 15:32:00,
2013-05-03 09:37:00,41.1,10.5,30.24,ESE,117,5.0,8.0,28,0.00,,,0.00,714,WeatherCatV1.15B25,2013-05-03 15:37:00,
2013-05-03 09:42:00,41.5,10.0,30.24,ESE,121,6.0,8.0,27,0.00,,,0.00,728,WeatherCatV1.15B25,2013-05-03 15:42:00,
2013-05-03 09:47:00,41.6,9.3,30.24,ESE,104,6.0,9.0,26,0.00,,,0.00,743,WeatherCatV1.15B25,2013-05-03 15:47:00,
2013-05-03 09:52:00,42.2,11.5,30.24,ESE,104,8.0,8.0,28,0.00,,,0.00,760,WeatherCatV1.15B25,2013-05-03 15:52:00,
2013-05-03 09:57:00,42.5,10.1,30.24,SE,126,7.0,11.0,26,0.00,,,0.00,772,WeatherCatV1.15B25,2013-05-03 15:57:00,
2013-05-03 10:02:00,42.2,8.9,30.23,ESE,119,3.0,12.0,25,0.00,,,0.00,787,WeatherCatV1.15B25,2013-05-03 16:02:00,
2013-05-03 10:07:00,43.1,10.6,30.23,ESE,117,4.0,7.0,26,0.00,,,0.00,801,WeatherCatV1.15B25,2013-05-03 16:07:00,
2013-05-03 10:12:00,43.1,8.8,30.23,ESE,119,8.0,8.0,24,0.00,,,0.00,813,WeatherCatV1.15B25,2013-05-03 16:12:00,
2013-05-03 10:17:00,43.3,12.4,30.23,ESE,119,5.0,6.0,28,0.00,,,0.00,823,WeatherCatV1.15B25,2013-05-03 16:17:00,
2013-05-03 10:22:00,43.9,9.5,30.23,SE,127,4.0,8.0,24,0.00,,,0.00,839,WeatherCatV1.15B25,2013-05-03 16:22:00,
2013-05-03 10:27:00,44.1,9.6,30.23,ESE,109,5.0,8.0,24,0.00,,,0.00,850,WeatherCatV1.15B25,2013-05-03 16:27:00,
2013-05-03 10:32:00,44.1,8.7,30.23,ESE,109,0.0,3.0,23,0.00,,,0.00,860,WeatherCatV1.15B25,2013-05-03 16:32:00,
2013-05-03 10:37:00,44.6,9.1,30.23,ESE,109,4.0,5.0,23,0.00,,,0.00,874,WeatherCatV1.15B25,2013-05-03 16:37:00,
2013-05-03 10:42:00,45.5,12.6,30.23,SE,127,7.0,8.0,26,0.00,,,0.00,859,WeatherCatV1.15B25,2013-05-03 16:42:00,
2013-05-03 10:47:00,45.7,10.1,30.22,ESE,121,2.0,5.0,23,0.00,,,0.00,869,WeatherCatV1.15B25,2013-05-03 16:47:00,
2013-05-03 10:52:00,46.2,10.5,30.22,SE,145,2.0,6.0,23,0.00,,,0.00,878,WeatherCatV1.15B25,2013-05-03 16:52:00,
2013-05-03 10:57:00,46.5,11.7,30.22,SE,144,0.0,2.0,24,0.00,,,0.00,889,WeatherCatV1.15B25,2013-05-03 16:57:00,
2013-05-03 11:02:00,47.0,12.1,30.22,SSE,148,0.0,4.0,24,0.00,,,0.00,896,WeatherCatV1.15B25,2013-05-03 17:02:00,
2013-05-03 11:07:00,47.3,11.4,30.22,SE,133,5.0,6.0,23,0.00,,,0.00,908,WeatherCatV1.15B25,2013-05-03 17:07:00,
2013-05-03 11:12:00,47.1,10.2,30.22,SE,130,0.0,6.0,22,0.00,,,0.00,915,WeatherCatV1.15B25,2013-05-03 17:12:00,
2013-05-03 11:17:00,47.9,9.9,30.21,NNE,24,0.0,5.0,21,0.00,,,0.00,922,WeatherCatV1.15B25,2013-05-03 17:17:00,
2013-05-03 11:22:00,48.8,12.7,30.21,ESE,123,1.0,7.0,23,0.00,,,0.00,934,WeatherCatV1.15B25,2013-05-03 17:22:00,
2013-05-03 11:27:00,49.6,11.3,30.21,East,93,1.0,3.0,21,0.00,,,0.00,941,WeatherCatV1.15B25,2013-05-03 17:27:00,
2013-05-03 11:32:00,49.6,12.3,30.20,SE,143,9.0,11.0,22,0.00,,,0.00,950,WeatherCatV1.15B25,2013-05-03 17:32:00,
2013-05-03 11:37:00,49.9,12.6,30.20,ESE,104,1.0,6.0,22,0.00,,,0.00,955,WeatherCatV1.15B25,2013-05-03 17:37:00,
2013-05-03 11:42:00,50.8,15.3,30.20,ESE,109,2.0,2.0,24,0.00,,,0.00,957,WeatherCatV1.15B25,2013-05-03 17:42:00,
2013-05-03 11:47:00,51.7,14.1,30.19,East,100,3.0,4.0,22,0.00,,,0.00,968,WeatherCatV1.15B25,2013-05-03 17:47:00,
2013-05-03 11:52:00,52.0,13.3,30.19,East,93,5.0,5.0,21,0.00,,,0.00,952,WeatherCatV1.15B25,2013-05-03 17:52:00,
2013-05-03 11:57:00,51.9,11.0,30.19,East,89,3.0,7.0,19,0.00,,,0.00,971,WeatherCatV1.15B25,2013-05-03 17:57:00,
2013-05-03 12:02:00,52.2,13.5,30.18,ESE,117,8.0,14.0,21,0.00,,,0.00,982,WeatherCatV1.15B25,2013-05-03 18:02:00,
2013-05-03 12:07:00,52.6,11.5,30.18,SE,133,6.0,12.0,19,0.00,,,0.00,985,WeatherCatV1.15B25,2013-05-03 18:07:00,
2013-05-03 12:12:00,52.9,12.9,30.18,East,99,7.0,12.0,20,0.00,,,0.00,989,WeatherCatV1.15B25,2013-05-03 18:12:00,
2013-05-03 12:17:00,53.3,12.1,30.17,ESE,104,0.0,8.0,19,0.00,,,0.00,992,WeatherCatV1.15B25,2013-05-03 18:17:00,
2013-05-03 12:22:00,54.4,11.8,30.17,SE,134,13.0,13.0,18,0.00,,,0.00,996,WeatherCatV1.15B25,2013-05-03 18:22:00,
2013-05-03 12:27:00,54.2,11.6,30.17,East,99,6.0,10.0,18,0.00,,,0.00,996,WeatherCatV1.15B25,2013-05-03 18:27:00,
2013-05-03 12:32:00,54.7,13.3,30.17,ESE,121,9.0,12.0,19,0.00,,,0.00,996,WeatherCatV1.15B25,2013-05-03 18:32:00,
2013-05-03 12:37:00,54.8,14.5,30.17,East,96,5.0,14.0,20,0.00,,,0.00,1001,WeatherCatV1.15B25,2013-05-03 18:37:00,
2013-05-03 12:42:00,54.8,10.8,30.17,ESE,116,0.0,6.0,17,0.00,,,0.00,1001,WeatherCatV1.15B25,2013-05-03 18:42:00,
2013-05-03 12:47:00,55.0,11.0,30.16,East,93,6.0,11.0,17,0.00,,,0.00,1001,WeatherCatV1.15B25,2013-05-03 18:47:00,
2013-05-03 12:52:00,55.1,13.6,30.16,East,93,6.0,12.0,19,0.00,,,0.00,1003,WeatherCatV1.15B25,2013-05-03 18:52:00,
2013-05-03 12:57:00,55.6,12.8,30.16,East,96,5.0,9.0,18,0.00,,,0.00,1003,WeatherCatV1.15B25,2013-05-03 18:57:00,
2013-05-03 13:02:00,56.0,11.8,30.16,ENE,78,0.0,3.0,17,0.00,,,0.00,1001,WeatherCatV1.15B25,2013-05-03 19:02:00,
2013-05-03 13:07:00,55.9,11.7,30.16,East,95,4.0,11.0,17,0.00,,,0.00,998,WeatherCatV1.15B25,2013-05-03 19:07:00,
2013-05-03 13:12:00,56.0,11.8,30.16,SE,145,9.0,12.0,17,0.00,,,0.00,1005,WeatherCatV1.15B25,2013-05-03 19:12:00,
2013-05-03 13:17:00,55.6,10.1,30.15,ESE,106,0.0,7.0,16,0.00,,,0.00,1001,WeatherCatV1.15B25,2013-05-03 19:17:00,
2013-05-03 13:22:00,55.7,11.6,30.15,SSE,152,6.0,8.0,17,0.00,,,0.00,998,WeatherCatV1.15B25,2013-05-03 19:22:00,
2013-05-03 13:27:00,56.0,10.5,30.15,SW,224,3.0,7.0,16,0.00,,,0.00,1003,WeatherCatV1.15B25,2013-05-03 19:27:00,
2013-05-03 13:32:00,56.6,13.6,30.14,WSW,256,3.0,3.0,18,0.00,,,0.00,913,WeatherCatV1.15B25,2013-05-03 19:32:00,
2013-05-03 13:37:00,57.3,14.2,30.14,East,86,6.0,9.0,18,0.00,,,0.00,980,WeatherCatV1.15B25,2013-05-03 19:37:00,
2013-05-03 13:42:00,57.5,13.0,30.14,ESE,114,1.0,8.0,17,0.00,,,0.00,991,WeatherCatV1.15B25,2013-05-03 19:42:00,
2013-05-03 13:47:00,57.0,9.8,30.14,SSE,150,6.0,10.0,15,0.00,,,0.00,989,WeatherCatV1.15B25,2013-05-03 19:47:00,
2013-05-03 13:52:00,56.9,9.8,30.14,South,174,0.0,4.0,15,0.00,,,0.00,991,WeatherCatV1.15B25,2013-05-03 19:52:00,
2013-05-03 13:57:00,57.6,11.8,30.14,ENE,78,8.0,9.0,16,0.00,,,0.00,970,WeatherCatV1.15B25,2013-05-03 19:57:00,
2013-05-03 14:02:00,57.3,11.5,30.13,SSE,165,10.0,10.0,16,0.00,,,0.00,948,WeatherCatV1.15B25,2013-05-03 20:02:00,
2013-05-03 14:07:00,57.6,10.3,30.13,ESE,113,2.0,10.0,15,0.00,,,0.00,950,WeatherCatV1.15B25,2013-05-03 20:07:00,
2013-05-03 14:12:00,58.4,15.1,30.13,South,181,2.0,5.0,18,0.00,,,0.00,968,WeatherCatV1.15B25,2013-05-03 20:12:00,
2013-05-03 14:17:00,59.2,17.0,30.12,SSW,196,2.0,8.0,19,0.00,,,0.00,971,WeatherCatV1.15B25,2013-05-03 20:17:00,
2013-05-03 14:22:00,59.3,10.1,30.12,SSE,147,0.0,0.0,14,0.00,,,0.00,859,WeatherCatV1.15B25,2013-05-03 20:22:00,
2013-05-03 14:27:00,58.6,13.9,30.12,SSE,152,6.0,7.0,17,0.00,,,0.00,948,WeatherCatV1.15B25,2013-05-03 20:27:00,
2013-05-03 14:32:00,59.0,11.4,30.12,SSE,152,6.0,8.0,15,0.00,,,0.00,885,WeatherCatV1.15B25,2013-05-03 20:32:00,
2013-05-03 14:37:00,58.9,11.4,30.12,WSW,237,5.0,7.0,15,0.00,,,0.00,871,WeatherCatV1.15B25,2013-05-03 20:37:00,
2013-05-03 14:42:00,58.3,12.3,30.12,WNW,282,3.0,7.0,16,0.00,,,0.00,795,WeatherCatV1.15B25,2013-05-03 20:42:00,
2013-05-03 14:47:00,59.2,11.6,30.11,ESE,123,0.0,6.0,15,0.00,,,0.00,809,WeatherCatV1.15B25,2013-05-03 20:47:00,
2013-05-03 14:52:00,58.6,11.1,30.11,South,179,7.0,12.0,15,0.00,,,0.00,737,WeatherCatV1.15B25,2013-05-03 20:52:00,
2013-05-03 14:57:00,58.0,10.6,30.11,SSE,161,0.0,3.0,15,0.00,,,0.00,809,WeatherCatV1.15B25,2013-05-03 20:57:00,
2013-05-03 15:02:00,58.6,9.6,30.10,SE,124,12.0,14.0,14,0.00,,,0.00,815,WeatherCatV1.15B25,2013-05-03 21:02:00,
2013-05-03 15:07:00,58.7,11.2,30.10,West,270,9.0,13.0,15,0.00,,,0.00,794,WeatherCatV1.15B25,2013-05-03 21:07:00,
2013-05-03 15:12:00,59.2,11.6,30.10,NW,315,6.0,10.0,15,0.00,,,0.00,825,WeatherCatV1.15B25,2013-05-03 21:12:00,
2013-05-03 15:17:00,59.8,8.9,30.10,WSW,253,17.0,18.0,13,0.00,,,0.00,830,WeatherCatV1.15B25,2013-05-03 21:17:00,
2013-05-03 15:22:00,59.2,11.6,30.10,SW,220,2.0,12.0,15,0.00,,,0.00,862,WeatherCatV1.15B25,2013-05-03 21:22:00,
2013-05-03 15:27:00,59.2,10.1,30.10,SE,130,3.0,7.0,14,0.00,,,0.00,841,WeatherCatV1.15B25,2013-05-03 21:27:00,
2013-05-03 15:32:00,59.5,10.3,30.09,West,267,6.0,8.0,14,0.00,,,0.00,787,WeatherCatV1.15B25,2013-05-03 21:32:00,
2013-05-03 15:37:00,59.8,8.9,30.09,SW,233,3.0,12.0,13,0.00,,,0.00,829,WeatherCatV1.15B25,2013-05-03 21:37:00,
2013-05-03 15:42:00,59.9,9.0,30.09,WSW,247,2.0,7.0,13,0.00,,,0.00,811,WeatherCatV1.15B25,2013-05-03 21:42:00,
2013-05-03 15:47:00,59.8,10.5,30.09,SW,232,6.0,18.0,14,0.00,,,0.00,709,WeatherCatV1.15B25,2013-05-03 21:47:00,
2013-05-03 15:52:00,59.5,11.8,30.09,South,178,6.0,6.0,15,0.00,,,0.00,755,WeatherCatV1.15B25,2013-05-03 21:52:00,
2013-05-03 15:57:00,59.8,10.5,30.09,South,171,1.0,6.0,14,0.00,,,0.00,732,WeatherCatV1.15B25,2013-05-03 21:57:00,
2013-05-03 16:02:00,60.2,9.2,30.08,West,270,10.0,18.0,13,0.00,,,0.00,751,WeatherCatV1.15B25,2013-05-03 22:02:00,
2013-05-03 16:07:00,59.9,9.0,30.08,West,272,7.0,17.0,13,0.00,,,0.00,737,WeatherCatV1.15B25,2013-05-03 22:07:00,
2013-05-03 16:12:00,59.9,9.0,30.08,SW,232,7.0,12.0,13,0.00,,,0.00,714,WeatherCatV1.15B25,2013-05-03 22:12:00,
2013-05-03 16:17:00,59.9,7.2,30.08,East,96,5.0,5.0,12,0.00,,,0.00,709,WeatherCatV1.15B25,2013-05-03 22:17:00,
2013-05-03 16:22:00,60.1,10.8,30.08,SW,232,12.0,13.0,14,0.00,,,0.00,695,WeatherCatV1.15B25,2013-05-03 22:22:00,
2013-05-03 16:27:00,60.4,7.6,30.08,SW,234,11.0,12.0,12,0.00,,,0.00,672,WeatherCatV1.15B25,2013-05-03 22:27:00,
2013-05-03 16:32:00,60.1,9.1,30.08,WSW,243,5.0,8.0,13,0.00,,,0.00,691,WeatherCatV1.15B25,2013-05-03 22:32:00,
2013-05-03 16:37:00,60.2,7.4,30.08,WSW,243,4.0,8.0,12,0.00,,,0.00,672,WeatherCatV1.15B25,2013-05-03 22:37:00,
2013-05-03 16:42:00,60.1,7.3,30.08,SSW,208,0.0,8.0,12,0.00,,,0.00,676,WeatherCatV1.15B25,2013-05-03 22:42:00,
2013-05-03 16:47:00,60.1,9.1,30.07,WSW,256,10.0,13.0,13,0.00,,,0.00,662,WeatherCatV1.15B25,2013-05-03 22:47:00,
2013-05-03 16:52:00,60.5,9.4,30.07,SW,219,7.0,7.0,13,0.00,,,0.00,644,WeatherCatV1.15B25,2013-05-03 22:52:00,
2013-05-03 16:57:00,60.7,9.6,30.07,South,188,7.0,12.0,13,0.00,,,0.00,630,WeatherCatV1.15B25,2013-05-03 22:57:00,
2013-05-03 17:02:00,61.0,8.0,30.07,NW,322,11.0,14.0,12,0.00,,,0.00,605,WeatherCatV1.15B25,2013-05-03 23:02:00,
2013-05-03 17:07:00,61.2,10.0,30.07,SW,236,8.0,12.0,13,0.00,,,0.00,568,WeatherCatV1.15B25,2013-05-03 23:07:00,
2013-05-03 17:12:00,60.4,9.4,30.07,SSW,193,14.0,18.0,13,0.00,,,0.00,563,WeatherCatV1.15B25,2013-05-03 23:12:00,
2013-05-03 17:17:00,59.9,7.2,30.07,WSW,254,5.0,9.0,12,0.00,,,0.00,496,WeatherCatV1.15B25,2013-05-03 23:17:00,
2013-05-03 17:22:00,58.7,8.0,30.07,South,189,6.0,12.0,13,0.00,,,0.00,216,WeatherCatV1.15B25,2013-05-03 23:22:00,
2013-05-03 17:27:00,58.4,7.8,30.07,SSW,200,0.0,5.0,13,0.00,,,0.00,457,WeatherCatV1.15B25,2013-05-03 23:27:00,
2013-05-03 17:32:00,58.7,9.7,30.07,West,278,6.0,11.0,14,0.00,,,0.00,285,WeatherCatV1.15B25,2013-05-03 23:32:00,
2013-05-03 17:37:00,59.0,8.2,30.07,WSW,258,13.0,13.0,13,0.00,,,0.00,364,WeatherCatV1.15B25,2013-05-03 23:37:00,
2013-05-03 17:42:00,59.5,8.6,30.07,NW,319,9.0,12.0,13,0.00,,,0.00,523,WeatherCatV1.15B25,2013-05-03 23:42:00,
2013-05-03 17:47:00,60.2,9.2,30.07,SW,232,11.0,13.0,13,0.00,,,0.00,505,WeatherCatV1.15B25,2013-05-03 23:47:00,
2013-05-03 17:52:00,60.4,7.6,30.07,SW,223,0.0,5.0,12,0.00,,,0.00,493,WeatherCatV1.15B25,2013-05-03 23:52:00,
2013-05-03 17:57:00,60.4,7.6,30.07,WSW,254,7.0,10.0,12,0.00,,,0.00,472,WeatherCatV1.15B25,2013-05-03 23:57:00,
2013-05-03 18:02:00,60.4,9.4,30.07,SSW,212,6.0,10.0,13,0.00,,,0.00,450,WeatherCatV1.15B25,2013-05-04 00:02:00,
2013-05-03 18:07:00,60.4,7.6,30.07,WSW,240,0.0,7.0,12,0.00,,,0.00,422,WeatherCatV1.15B25,2013-05-04 00:07:00,
2013-05-03 18:12:00,60.4,7.6,30.07,West,272,5.0,10.0,12,0.00,,,0.00,385,WeatherCatV1.15B25,2013-05-04 00:12:00,
2013-05-03 18:17:00,60.5,7.7,30.06,West,265,7.0,11.0,12,0.00,,,0.00,350,WeatherCatV1.15B25,2013-05-04 00:17:00,
2013-05-03 18:22:00,60.4,7.6,30.06,WSW,244,0.0,6.0,12,0.00,,,0.00,311,WeatherCatV1.15B25,2013-05-04 00:22:00,
2013-05-03 18:27:00,60.5,7.7,30.06,SW,236,5.0,6.0,12,0.00,,,0.00,287,WeatherCatV1.15B25,2013-05-04 00:27:00,
2013-05-03 18:32:00,60.2,9.2,30.06,South,178,0.0,0.0,13,0.00,,,0.00,271,WeatherCatV1.15B25,2013-05-04 00:32:00,
2013-05-03 18:37:00,59.6,13.4,30.06,ENE,72,0.0,10.0,16,0.00,,,0.00,266,WeatherCatV1.15B25,2013-05-04 00:37:00,
2013-05-03 18:42:00,59.0,11.4,30.06,ENE,62,3.0,5.0,15,0.00,,,0.00,248,WeatherCatV1.15B25,2013-05-04 00:42:00,
2013-05-03 18:47:00,58.0,14.8,30.06,ENE,71,0.0,5.0,18,0.00,,,0.00,222,WeatherCatV1.15B25,2013-05-04 00:47:00,
2013-05-03 18:52:00,56.3,14.6,30.06,SE,134,0.0,13.0,19,0.00,,,0.00,195,WeatherCatV1.15B25,2013-05-04 00:52:00,
2013-05-03 18:57:00,55.7,14.1,30.06,SSE,168,10.0,12.0,19,0.00,,,0.00,150,WeatherCatV1.15B25,2013-05-04 00:57:00,
2013-05-03 19:02:00,54.4,15.3,30.07,NNE,32,2.0,7.0,21,0.00,,,0.00,49,WeatherCatV1.15B25,2013-05-04 01:02:00,
2013-05-03 19:07:00,53.9,15.9,30.07,SE,137,5.0,7.0,22,0.00,,,0.00,46,WeatherCatV1.15B25,2013-05-04 01:07:00,
2013-05-03 19:12:00,52.9,14.0,30.07,NNE,30,6.0,9.0,21,0.00,,,0.00,42,WeatherCatV1.15B25,2013-05-04 01:12:00,
2013-05-03 19:17:00,52.2,14.5,30.08,ENE,76,9.0,11.0,22,0.00,,,0.00,39,WeatherCatV1.15B25,2013-05-04 01:17:00,
2013-05-03 19:22:00,51.4,13.9,30.08,NNE,17,6.0,8.0,22,0.00,,,0.00,26,WeatherCatV1.15B25,2013-05-04 01:22:00,
2013-05-03 19:27:00,50.7,16.2,30.08,North,0,9.0,9.0,25,0.00,,,0.00,23,WeatherCatV1.15B25,2013-05-04 01:27:00,
2013-05-03 19:32:00,49.8,15.4,30.09,North,0,6.0,7.0,25,0.00,,,0.00,19,WeatherCatV1.15B25,2013-05-04 01:32:00,
2013-05-03 19:37:00,49.2,14.0,30.09,North,1,2.0,7.0,24,0.00,,,0.00,18,WeatherCatV1.15B25,2013-05-04 01:37:00,
2013-05-03 19:42:00,48.8,14.6,30.09,North,0,5.0,8.0,25,0.00,,,0.00,14,WeatherCatV1.15B25,2013-05-04 01:42:00,
2013-05-03 19:47:00,48.3,14.1,30.09,North,359,7.0,7.0,25,0.00,,,0.00,11,WeatherCatV1.15B25,2013-05-04 01:47:00,
2013-05-03 19:52:00,47.9,13.8,30.09,ENE,69,7.0,8.0,25,0.00,,,0.00,9,WeatherCatV1.15B25,2013-05-04 01:52:00,
2013-05-03 19:57:00,47.6,14.4,30.09,North,357,3.0,6.0,26,0.00,,,0.00,7,WeatherCatV1.15B25,2013-05-04 01:57:00,
2013-05-03 20:02:00,47.3,15.0,30.09,NNE,13,6.0,13.0,27,0.00,,,0.00,5,WeatherCatV1.15B25,2013-05-04 02:02:00,
2013-05-03 20:07:00,47.0,13.9,30.09,NNE,27,11.0,17.0,26,0.00,,,0.00,5,WeatherCatV1.15B25,2013-05-04 02:07:00,
2013-05-03 20:12:00,46.7,13.7,30.09,NNE,23,18.0,19.0,26,0.00,,,0.00,0,WeatherCatV1.15B25,2013-05-04 02:12:00,
2013-05-03 20:17:00,46.5,14.3,30.10,North,10,9.0,11.0,27,0.00,,,0.00,0,WeatherCatV1.15B25,2013-05-04 02:17:00,
2013-05-03 20:22:00,46.1,14.0,30.10,NE,41,12.0,15.0,27,0.00,,,0.00,0,WeatherCatV1.15B25,2013-05-04 02:22:00,
2013-05-03 20:27:00,46.0,14.7,30.10,NNE,13,4.0,11.0,28,0.00,,,0.00,0,WeatherCatV1.15B25,2013-05-04 02:27:00,
2013-05-03 20:32:00,45.8,14.6,30.11,North,4,10.0,11.0,28,0.00,,,0.00,0,WeatherCatV1.15B25,2013-05-04 02:32:00,
2013-05-03 20:37:00,45.7,14.5,30.11,North,10,8.0,11.0,28,0.00,,,0.00,0,WeatherCatV1.15B25,2013-05-04 02:37:00,
2013-05-03 20:42:00,45.4,14.2,30.11,North,0,12.0,12.0,28,0.00,,,0.00,0,WeatherCatV1.15B25,2013-05-04 02:42:00,
2013-05-03 20:47:00,45.2,14.1,30.12,North,10,6.0,11.0,28,0.00,,,0.00,0,WeatherCatV1.15B25,2013-05-04 02:47:00,
2013-05-03 20:52:00,44.9,13.8,30.12,North,0,9.0,12.0,28,0.00,,,0.00,0,WeatherCatV1.15B25,2013-05-04 02:52:00,
2013-05-03 20:57:00,44.6,13.5,30.12,NNE,16,16.0,19.0,28,0.00,,,0.00,0,WeatherCatV1.15B25,2013-05-04 02:57:00,
2013-05-03 21:02:00,44.6,13.5,30.12,NNE,30,12.0,12.0,28,0.00,,,0.00,0,WeatherCatV1.15B25,2013-05-04 03:02:00,
2013-05-03 21:07:00,44.5,13.4,30.12,North,1,7.0,7.0,28,0.00,,,0.00,0,WeatherCatV1.15B25,2013-05-04 03:07:00,
2013-05-03 21:12:00,44.1,13.9,30.12,North,4,13.0,14.0,29,0.00,,,0.00,0,WeatherCatV1.15B25,2013-05-04 03:12:00,
2013-05-03 21:17:00,43.9,12.9,30.12,North,0,6.0,13.0,28,0.00,,,0.00,0,WeatherCatV1.15B25,2013-05-04 03:17:00,
2013-05-03 21:22:00,43.8,13.6,30.12,North,356,10.0,12.0,29,0.00,,,0.00,0,WeatherCatV1.15B25,2013-05-04 03:22:00,
2013-05-03 21:27:00,43.5,14.1,30.12,North,1,3.0,12.0,30,0.00,,,0.00,0,WeatherCatV1.15B25,2013-05-04 03:27:00,
2013-05-03 21:32:00,43.2,13.9,30.12,NNW,335,6.0,11.0,30,0.00,,,0.00,0,WeatherCatV1.15B25,2013-05-04 03:32:00,
2013-05-03 21:37:00,43.1,14.5,30.12,North,0,12.0,13.0,31,0.00,,,0.00,0,WeatherCatV1.15B25,2013-05-04 03:37:00,
2013-05-03 21:42:00,43.1,13.8,30.12,NNW,343,9.0,11.0,30,0.00,,,0.00,0,WeatherCatV1.15B25,2013-05-04 03:42:00,
2013-05-03 21:47:00,42.9,13.6,30.13,North,3,10.0,15.0,30,0.00,,,0.00,0,WeatherCatV1.15B25,2013-05-04 03:47:00,
2013-05-03 21:52:00,43.1,13.8,30.13,North,1,6.0,13.0,30,0.00,,,0.00,0,WeatherCatV1.15B25,2013-05-04 03:52:00,
2013-05-03 21:55:00,42.9,13.6,30.13,North,359,9.0,15.0,30,0.00,,,0.00,0,WeatherCatV1.15B25,2013-05-04 03:55:00,
2013-05-03 22:00:00,43.1,13.8,30.13,North,2,9.0,14.0,30,0.00,,,0.00,0,WeatherCatV1.15B25,2013-05-04 04:00:00,
2013-05-03 22:05:00,42.9,13.6,30.14,North,0,9.0,15.0,30,0.00,,,0.00,0,WeatherCatV1.15B25,2013-05-04 04:05:00,
2013-05-03 22:10:00,42.9,13.6,30.14,North,0,9.0,15.0,30,0.00,,,0.00,0,WeatherCatV1.15B25,2013-05-04 04:10:00,
2013-05-03 22:15:00,42.9,13.6,30.14,North,0,9.0,15.0,30,0.00,,,0.00,0,WeatherCatV1.15B25,2013-05-04 04:15:00,
2013-05-03 22:20:00,42.8,14.3,30.14,North,0,7.0,17.0,31,0.00,,,0.00,0,WeatherCatV1.15B25,2013-05-04 04:20:00,
2013-05-03 22:25:00,42.8,14.3,30.14,North,0,7.0,17.0,31,0.00,,,0.00,0,WeatherCatV1.15B25,2013-05-04 04:25:00,
2013-05-03 22:30:00,42.8,14.3,30.14,North,0,7.0,17.0,31,0.00,,,0.00,0,WeatherCatV1.15B25,2013-05-04 04:30:00,
2013-05-03 22:35:00,42.6,14.8,30.14,North,0,7.0,18.0,32,0.00,,,0.00,0,WeatherCatV1.15B25,2013-05-04 04:35:00,
2013-05-03 22:40:00,42.6,14.8,30.14,North,0,7.0,18.0,32,0.00,,,0.00,0,WeatherCatV1.15B25,2013-05-04 04:40:00,
2013-05-03 22:45:00,42.6,14.8,30.14,North,0,7.0,18.0,32,0.00,,,0.00,0,WeatherCatV1.15B25,2013-05-04 04:45:00,
2013-05-03 22:50:00,42.3,14.6,30.14,NNE,22,6.0,14.0,32,0.00,,,0.00,0,WeatherCatV1.15B25,2013-05-04 04:50:00,
2013-05-03 22:55:00,42.3,14.6,30.14,NNE,22,6.0,14.0,32,0.00,,,0.00,0,WeatherCatV1.15B25,2013-05-04 04:55:00,
2013-05-03 23:00:00,42.3,14.6,30.14,NNE,22,6.0,14.0,32,0.00,,,0.00,0,WeatherCatV1.15B25,2013-05-04 05:00:00,
2013-05-03 23:05:00,41.5,15.2,30.14,North,0,4.0,11.0,34,0.00,,,0.00,0,WeatherCatV1.15B25,2013-05-04 05:05:00,
2013-05-03 23:10:00,41.5,15.2,30.14,North,0,4.0,11.0,34,0.00,,,0.00,0,WeatherCatV1.15B25,2013-05-04 05:10:00,
2013-05-03 23:15:00,41.5,15.2,30.14,North,0,4.0,11.0,34,0.00,,,0.00,0,WeatherCatV1.15B25,2013-05-04 05:15:00,
2013-05-03 23:20:00,40.9,15.4,30.14,NNE,22,6.0,14.0,35,0.00,,,0.00,0,WeatherCatV1.15B25,2013-05-04 05:20:00,
2013-05-03 23:25:00,40.9,15.4,30.14,NNE,22,6.0,14.0,35,0.00,,,0.00,0,WeatherCatV1.15B25,2013-05-04 05:25:00,
2013-05-03 23:30:00,40.9,15.4,30.14,NNE,22,6.0,14.0,35,0.00,,,0.00,0,WeatherCatV1.15B25,2013-05-04 05:30:00,
2013-05-03 23:35:00,40.2,14.8,30.14,NE,45,2.0,8.0,35,0.00,,,0.00,0,WeatherCatV1.15B25,2013-05-04 05:35:00,
2013-05-03 23:40:00,40.2,14.8,30.14,NE,45,2.0,8.0,35,0.00,,,0.00,0,WeatherCatV1.15B25,2013-05-04 05:40:00,
2013-05-03 23:45:00,40.2,14.8,30.14,NE,45,2.0,8.0,35,0.00,,,0.00,0,WeatherCatV1.15B25,2013-05-04 05:45:00,
2013-05-03 23:50:00,39.5,16.0,30.14,North,0,2.0,7.0,38,0.00,,,0.00,0,WeatherCatV1.15B25,2013-05-04 05:50:00,
2013-05-03 23:55:00,39.5,16.0,30.14,North,0,2.0,7.0,38,0.00,,,0.00,0,WeatherCatV1.15B25,2013-05-04 05:55:00,